createdAt,value
2019-05-12T00:01:28.861Z,14.43
2019-05-12T00:03:59.294Z,26.57
2019-05-12T00:06:29.944Z,17.03
2019-05-12T00:09:00.436Z,16.73
2019-05-12T00:11:30.891Z,13.07
2019-05-12T00:14:01.353Z,9.93
2019-05-12T00:16:31.820Z,8.90
2019-05-12T00:19:02.301Z,22.43
2019-05-12T00:21:32.741Z,12.97
2019-05-12T00:24:12.543Z,14.33
2019-05-12T00:26:43.804Z,10.30
2019-05-12T00:29:14.216Z,14.80
2019-05-12T00:31:44.632Z,18.57
2019-05-12T00:34:15.091Z,15.60
2019-05-12T00:36:45.473Z,10.80
2019-05-12T00:39:18.897Z,12.13
2019-05-12T00:41:48.743Z,8.80
2019-05-12T00:44:19.160Z,15.03
2019-05-12T00:46:49.849Z,7.10
2019-05-12T00:49:20.258Z,14.33
2019-05-12T00:51:50.728Z,7.20
2019-05-12T00:54:21.127Z,10.80
2019-05-12T00:56:51.593Z,8.70
2019-05-12T00:59:22.008Z,12.50
2019-05-12T01:01:52.477Z,13.13
2019-05-12T01:04:22.891Z,9.00
2019-05-12T01:06:53.357Z,8.47
2019-05-12T01:09:23.780Z,8.97
2019-05-12T01:11:54.424Z,15.37
2019-05-12T01:14:24.841Z,13.07
2019-05-12T01:16:55.282Z,9.97
2019-05-12T01:19:25.767Z,11.90
2019-05-12T01:21:58.557Z,7.80
2019-05-12T01:24:28.489Z,7.07
2019-05-12T01:26:58.927Z,11.80
2019-05-12T01:29:29.371Z,10.87
2019-05-12T01:32:10.484Z,9.37
2019-05-12T01:34:40.924Z,6.27
2019-05-12T01:37:23.728Z,15.73
2019-05-12T01:39:55.081Z,12.10
2019-05-12T01:42:25.478Z,8.57
2019-05-12T01:44:58.354Z,9.63
2019-05-12T01:47:29.137Z,9.97
2019-05-12T01:50:01.318Z,8.60
2019-05-12T01:52:31.910Z,8.07
2019-05-12T01:55:02.352Z,14.63
2019-05-12T01:57:32.753Z,11.90
2019-05-12T02:00:03.165Z,5.53
2019-05-12T02:02:33.618Z,6.03
2019-05-12T02:05:08.560Z,5.70
2019-05-12T02:07:44.253Z,9.63
2019-05-12T02:10:15.110Z,7.53
2019-05-12T02:12:45.642Z,6.50
2019-05-12T02:15:18.378Z,6.50
2019-05-12T02:17:49.122Z,10.63
2019-05-12T02:20:20.693Z,6.30
2019-05-12T02:22:51.140Z,11.17
2019-05-12T02:25:22.164Z,15.20
2019-05-12T02:27:52.609Z,6.50
2019-05-12T02:30:23.218Z,14.50
2019-05-12T02:32:58.757Z,5.70
2019-05-12T02:35:25.839Z,7.17
2019-05-12T02:37:56.289Z,4.10
2019-05-12T02:40:26.870Z,5.90
2019-05-12T02:42:57.518Z,4.60
2019-05-12T02:45:27.940Z,12.70
2019-05-12T02:47:58.381Z,10.20
2019-05-12T02:50:37.909Z,13.93
2019-05-12T02:53:09.281Z,8.07
2019-05-12T02:55:40.632Z,8.90
2019-05-12T02:58:15.231Z,7.37
2019-05-12T03:00:46.273Z,7.60
2019-05-12T03:03:18.344Z,13.37
2019-05-12T03:05:49.407Z,6.53
2019-05-12T03:08:25.561Z,11.27
2019-05-12T03:10:55.963Z,6.87
2019-05-12T03:13:26.432Z,12.40
2019-05-12T03:15:56.813Z,5.13
2019-05-12T03:18:27.455Z,7.23
2019-05-12T03:20:58.854Z,7.67
2019-05-12T03:23:29.308Z,5.40
2019-05-12T03:25:59.749Z,8.83
2019-05-12T03:28:30.142Z,5.07
2019-05-12T03:31:00.697Z,9.97
2019-05-12T03:33:36.017Z,6.97
2019-05-12T03:36:08.402Z,10.50
2019-05-12T03:38:36.145Z,5.80
2019-05-12T03:41:07.233Z,7.90
2019-05-12T03:43:37.659Z,6.40
2019-05-12T03:46:08.120Z,10.23
2019-05-12T03:48:38.506Z,9.43
2019-05-12T03:51:08.958Z,6.73
2019-05-12T03:53:39.383Z,4.33
2019-05-12T03:56:09.798Z,9.37
2019-05-12T03:58:40.201Z,7.40
2019-05-12T04:01:10.619Z,9.93
2019-05-12T04:03:41.003Z,5.80
2019-05-12T04:06:11.487Z,7.50
2019-05-12T04:08:45.512Z,6.83
2019-05-12T04:11:15.781Z,4.97
2019-05-12T04:13:46.338Z,7.67
2019-05-12T04:16:16.773Z,3.20
2019-05-12T04:18:47.459Z,8.83
2019-05-12T04:21:17.837Z,4.17
2019-05-12T04:23:48.589Z,9.90
2019-05-12T04:26:18.997Z,11.13
2019-05-12T04:28:49.619Z,6.27
2019-05-12T04:31:20.026Z,3.73
2019-05-12T04:33:50.555Z,4.30
2019-05-12T04:36:20.943Z,8.43
2019-05-12T04:38:51.564Z,10.20
2019-05-12T04:41:25.639Z,8.20
2019-05-12T04:43:55.086Z,4.97
2019-05-12T04:46:25.714Z,8.13
2019-05-12T04:48:56.128Z,3.80
2019-05-12T04:51:26.643Z,4.93
2019-05-12T04:53:57.078Z,9.03
2019-05-12T04:56:27.514Z,7.00
2019-05-12T04:58:57.915Z,9.03
2019-05-12T05:01:28.346Z,5.53
2019-05-12T05:03:58.773Z,2.60
2019-05-12T05:06:29.204Z,4.93
2019-05-12T05:08:59.625Z,11.87
2019-05-12T05:11:30.074Z,10.40
2019-05-12T05:14:00.557Z,5.83
2019-05-12T05:16:31.008Z,2.50
2019-05-12T05:19:03.474Z,3.50
2019-05-12T05:21:34.538Z,6.83
2019-05-12T05:24:05.066Z,15.30
2019-05-12T05:26:37.427Z,4.90
2019-05-12T05:29:07.635Z,2.80
2019-05-12T05:31:38.067Z,12.87
2019-05-12T05:34:08.461Z,8.83
2019-05-12T05:36:38.937Z,3.80
2019-05-12T05:39:09.405Z,3.10
2019-05-12T05:41:46.459Z,7.97
2019-05-12T05:44:14.056Z,6.13
2019-05-12T05:46:49.961Z,3.67
2019-05-12T05:49:16.704Z,5.10
2019-05-12T05:51:54.253Z,4.20
2019-05-12T05:54:24.731Z,13.43
2019-05-12T05:57:01.856Z,4.30
2019-05-12T05:59:31.144Z,4.47
2019-05-12T06:01:57.121Z,4.17
2019-05-12T06:04:27.619Z,2.03
2019-05-12T06:06:58.265Z,4.57
2019-05-12T06:09:29.385Z,10.60
2019-05-12T06:12:07.569Z,2.10
2019-05-12T06:14:34.224Z,3.50
2019-05-12T06:17:05.154Z,8.67
2019-05-12T06:19:37.526Z,3.17
2019-05-12T06:22:14.229Z,4.40
2019-05-12T06:24:44.169Z,2.63
2019-05-12T06:27:20.590Z,1.57
2019-05-12T06:29:47.164Z,7.67
2019-05-12T06:32:18.104Z,2.30
2019-05-12T06:34:50.924Z,5.10
2019-05-12T06:37:23.508Z,4.63
2019-05-12T06:39:56.559Z,3.33
2019-05-12T06:42:26.794Z,4.13
2019-05-12T06:44:58.295Z,3.70
2019-05-12T06:47:29.055Z,3.10
2019-05-12T06:49:59.470Z,5.87
2019-05-12T06:52:33.592Z,1.93
2019-05-12T06:55:04.108Z,2.67
2019-05-12T06:57:39.968Z,2.47
2019-05-12T07:00:08.601Z,5.93
2019-05-12T07:02:49.092Z,2.73
2019-05-12T07:05:14.461Z,5.03
2019-05-12T07:07:46.067Z,11.10
2019-05-12T07:10:35.617Z,4.87
2019-05-12T07:12:58.811Z,5.27
2019-05-12T07:15:23.400Z,6.33
2019-05-12T07:18:04.876Z,4.00
2019-05-12T07:20:38.829Z,2.50
2019-05-12T07:23:07.591Z,4.17
2019-05-12T07:25:38.054Z,4.83
2019-05-12T07:28:08.565Z,7.60
2019-05-12T07:30:39.057Z,4.83
2019-05-12T07:33:09.723Z,3.37
2019-05-12T07:35:44.257Z,5.67
2019-05-12T07:38:20.878Z,4.30
2019-05-12T07:40:50.384Z,3.53
2019-05-12T07:43:24.252Z,1.40
2019-05-12T07:46:02.366Z,3.13
2019-05-12T07:48:28.386Z,1.63
2019-05-12T07:51:00.583Z,5.03
2019-05-12T07:53:31.287Z,2.07
2019-05-12T07:56:03.962Z,5.97
2019-05-12T07:58:34.378Z,7.53
2019-05-12T08:01:07.775Z,1.70
2019-05-12T08:03:37.273Z,5.40
2019-05-12T08:06:07.744Z,1.83
2019-05-12T08:08:44.658Z,2.20
2019-05-12T08:11:11.284Z,4.80
2019-05-12T08:13:43.676Z,7.40
2019-05-12T08:16:14.356Z,5.30
2019-05-12T08:18:44.932Z,2.53
2019-05-12T08:21:15.582Z,3.63
2019-05-12T08:23:46.082Z,2.60
2019-05-12T08:26:18.582Z,5.80
2019-05-12T08:28:48.727Z,3.43
2019-05-12T08:31:23.398Z,1.60
2019-05-12T08:33:53.795Z,1.57
2019-05-12T08:36:24.349Z,2.90
2019-05-12T08:38:54.817Z,5.60
2019-05-12T08:41:25.420Z,4.40
2019-05-12T08:43:58.446Z,3.00
2019-05-12T08:46:28.380Z,1.53
2019-05-12T08:49:02.261Z,9.30
2019-05-12T08:51:33.814Z,3.00
2019-05-12T08:54:07.984Z,5.70
2019-05-12T08:56:36.662Z,5.97
2019-05-12T08:59:09.703Z,4.83
2019-05-12T09:01:39.794Z,7.27
2019-05-12T09:04:15.112Z,10.83
2019-05-12T09:06:43.636Z,2.00
2019-05-12T09:09:14.451Z,4.90
2019-05-12T09:11:45.307Z,3.63
2019-05-12T09:14:15.976Z,1.93
2019-05-12T09:16:46.604Z,1.73
2019-05-12T09:19:23.796Z,18.07
2019-05-12T09:21:49.246Z,4.27
2019-05-12T09:24:22.794Z,3.53
2019-05-12T09:26:53.814Z,7.80
2019-05-12T09:29:25.311Z,3.27
2019-05-12T09:31:59.298Z,1.50
2019-05-12T09:34:29.333Z,2.23
2019-05-12T09:37:01.107Z,1.80
2019-05-12T09:39:36.485Z,2.70
2019-05-12T09:42:03.995Z,4.90
2019-05-12T09:44:34.365Z,7.90
2019-05-12T09:47:07.600Z,1.37
2019-05-12T09:49:39.581Z,1.00
2019-05-12T09:52:14.049Z,3.37
2019-05-12T09:54:41.325Z,1.80
2019-05-12T09:57:13.647Z,12.00
2019-05-12T09:59:45.822Z,7.00
2019-05-12T10:02:20.633Z,3.30
2019-05-12T10:04:50.277Z,1.03
2019-05-12T10:07:20.822Z,2.40
2019-05-12T10:09:55.025Z,1.47
2019-05-12T10:12:23.432Z,4.33
2019-05-12T10:14:53.900Z,2.30
2019-05-12T10:17:26.314Z,1.47
2019-05-12T10:19:58.149Z,3.37
2019-05-12T10:22:40.175Z,2.27
2019-05-12T10:25:14.452Z,2.43
2019-05-12T10:27:45.139Z,3.70
2019-05-12T10:30:17.946Z,2.27
2019-05-12T10:32:48.512Z,1.80
2019-05-12T10:35:21.432Z,7.60
2019-05-12T10:37:51.313Z,4.37
2019-05-12T10:40:23.319Z,3.57
2019-05-12T10:42:53.992Z,3.70
2019-05-12T10:45:27.156Z,3.33
2019-05-12T10:47:57.615Z,6.03
2019-05-12T10:50:28.065Z,4.33
2019-05-12T10:52:58.569Z,2.30
2019-05-12T10:55:28.967Z,3.80
2019-05-12T10:58:01.716Z,6.10
2019-05-12T11:00:33.711Z,5.77
2019-05-12T11:03:10.108Z,3.53
2019-05-12T11:05:36.075Z,1.70
2019-05-12T11:08:10.994Z,2.30
2019-05-12T11:10:39.121Z,1.27
2019-05-12T11:13:10.033Z,5.90
2019-05-12T11:15:46.191Z,1.30
2019-05-12T11:18:20.566Z,4.13
2019-05-12T11:20:49.745Z,2.00
2019-05-12T11:23:20.203Z,5.47
2019-05-12T11:25:53.198Z,9.63
2019-05-12T11:28:24.473Z,1.40
2019-05-12T11:30:55.294Z,1.20
2019-05-12T11:33:25.806Z,4.00
2019-05-12T11:35:56.291Z,6.93
2019-05-12T11:38:26.787Z,3.07
2019-05-12T11:40:57.324Z,1.50
2019-05-12T11:43:29.756Z,3.50
2019-05-12T11:46:00.822Z,1.90
2019-05-12T11:48:33.880Z,4.93
2019-05-12T11:51:04.558Z,2.53
2019-05-12T11:53:36.905Z,4.43
2019-05-12T11:56:09.230Z,2.73
2019-05-12T11:58:44.695Z,3.23
2019-05-12T12:01:14.718Z,0.90
2019-05-12T12:03:45.970Z,6.23
2019-05-12T12:06:16.434Z,0.90
2019-05-12T12:08:47.165Z,7.30
2019-05-12T12:11:24.232Z,1.70
2019-05-12T12:13:53.600Z,9.90
2019-05-12T12:16:24.553Z,1.57
2019-05-12T12:19:02.245Z,3.63
2019-05-12T12:21:31.793Z,1.43
2019-05-12T12:24:03.956Z,10.23
2019-05-12T12:26:37.098Z,1.03
2019-05-12T12:29:07.166Z,1.00
2019-05-12T12:31:54.511Z,1.73
2019-05-12T12:34:30.141Z,1.20
2019-05-12T12:36:57.653Z,1.40
2019-05-12T12:39:28.316Z,6.53
2019-05-12T12:42:00.756Z,6.73
2019-05-12T12:44:33.941Z,5.20
2019-05-12T12:47:03.663Z,1.90
2019-05-12T12:49:35.177Z,1.20
2019-05-12T12:52:05.716Z,1.03
2019-05-12T12:54:36.822Z,1.53
2019-05-12T12:57:09.956Z,0.80
2019-05-12T12:59:45.481Z,1.13
2019-05-12T13:02:14.252Z,1.03
2019-05-12T13:04:49.868Z,2.47
2019-05-12T13:07:19.040Z,0.80
2019-05-12T13:09:55.000Z,1.40
2019-05-12T13:12:22.071Z,2.40
2019-05-12T13:14:53.226Z,2.73
2019-05-12T13:17:29.033Z,2.83
2019-05-12T13:19:58.627Z,1.10
2019-05-12T13:22:29.697Z,2.83
2019-05-12T13:25:04.411Z,0.93
2019-05-12T13:27:36.750Z,1.03
2019-05-12T13:30:06.196Z,0.70
2019-05-12T13:32:37.963Z,1.80
2019-05-12T13:35:09.723Z,1.80
2019-05-12T13:37:43.323Z,6.77
2019-05-12T13:40:14.451Z,0.73
2019-05-12T13:42:44.959Z,1.80
2019-05-12T13:45:16.486Z,3.10
2019-05-12T13:47:46.944Z,0.90
2019-05-12T13:50:21.679Z,3.50
2019-05-12T13:52:50.160Z,1.90
2019-05-12T13:55:20.762Z,0.80
2019-05-12T13:57:56.217Z,0.90
2019-05-12T14:00:23.428Z,1.60
2019-05-12T14:02:57.209Z,1.80
2019-05-12T14:05:26.299Z,4.83
2019-05-12T14:07:57.417Z,1.33
2019-05-12T14:10:28.038Z,1.30
2019-05-12T14:12:58.535Z,4.03
2019-05-12T14:15:28.999Z,0.80
2019-05-12T14:17:59.615Z,1.30
2019-05-12T14:20:30.113Z,1.43
2019-05-12T14:23:00.585Z,1.93
2019-05-12T14:25:32.860Z,0.97
2019-05-12T14:28:05.408Z,1.60
2019-05-12T14:30:35.680Z,0.70
2019-05-12T14:33:06.080Z,1.63
2019-05-12T14:35:40.747Z,3.23
2019-05-12T14:38:09.407Z,1.07
2019-05-12T14:40:40.008Z,1.17
2019-05-12T14:43:17.030Z,2.00
2019-05-12T14:45:44.006Z,1.57
2019-05-12T14:48:14.880Z,1.10
2019-05-12T14:50:45.369Z,1.60
2019-05-12T14:53:16.169Z,12.93
2019-05-12T14:55:46.875Z,0.80
2019-05-12T14:58:20.613Z,5.80
2019-05-12T15:00:50.932Z,0.90
2019-05-12T15:03:24.179Z,2.40
2019-05-12T15:05:54.617Z,1.00
2019-05-12T15:08:35.253Z,2.40
2019-05-12T15:10:57.547Z,0.77
2019-05-12T15:13:28.053Z,0.87
2019-05-12T15:16:00.210Z,2.90
2019-05-12T15:18:30.955Z,3.43
2019-05-12T15:21:03.446Z,0.93
2019-05-12T15:23:37.314Z,1.23
2019-05-12T15:26:09.571Z,1.47
2019-05-12T15:28:38.221Z,0.90
2019-05-12T15:31:08.724Z,2.23
2019-05-12T15:33:39.201Z,1.07
2019-05-12T15:36:09.709Z,0.90
2019-05-12T15:38:40.162Z,2.20
2019-05-12T15:41:15.702Z,1.93
2019-05-12T15:43:47.011Z,1.37
2019-05-12T15:46:16.434Z,1.90
2019-05-12T15:48:47.111Z,0.70
2019-05-12T15:51:18.329Z,3.90
2019-05-12T15:53:48.790Z,0.83
2019-05-12T15:56:23.087Z,1.13
2019-05-12T15:58:55.880Z,0.90
2019-05-12T16:01:24.379Z,5.80
2019-05-12T16:03:55.135Z,0.77
2019-05-12T16:06:25.741Z,0.90
2019-05-12T16:08:56.314Z,4.00
2019-05-12T16:11:26.805Z,1.47
2019-05-12T16:13:59.298Z,1.87
2019-05-12T16:16:34.084Z,0.80
2019-05-12T16:19:04.342Z,2.23
2019-05-12T16:21:34.332Z,1.63
2019-05-12T16:24:11.187Z,2.30
2019-05-12T16:26:37.296Z,1.10
2019-05-12T16:29:07.767Z,1.60
2019-05-12T16:31:39.545Z,1.03
2019-05-12T16:34:10.685Z,1.30
2019-05-12T16:36:46.438Z,0.87
2019-05-12T16:39:13.594Z,2.00
2019-05-12T16:41:44.223Z,1.80
2019-05-12T16:44:22.546Z,0.87
2019-05-12T16:46:46.894Z,1.80
2019-05-12T16:49:17.412Z,1.97
2019-05-12T16:51:47.902Z,3.70
2019-05-12T16:54:18.498Z,2.27
2019-05-12T16:56:48.928Z,0.87
2019-05-12T16:59:21.908Z,0.73
2019-05-12T17:01:54.117Z,4.43
2019-05-12T17:04:24.197Z,0.70
2019-05-12T17:06:54.682Z,1.37
2019-05-12T17:09:25.198Z,1.33
2019-05-12T17:11:55.702Z,1.20
2019-05-12T17:14:28.564Z,3.10
2019-05-12T17:16:58.500Z,1.00
2019-05-12T17:19:28.978Z,1.03
2019-05-12T17:21:59.679Z,4.87
2019-05-12T17:24:30.241Z,0.80
2019-05-12T17:27:00.671Z,0.80
2019-05-12T17:29:33.256Z,0.83
2019-05-12T17:32:04.145Z,0.80
2019-05-12T17:34:40.254Z,0.83
2019-05-12T17:37:09.574Z,1.57
2019-05-12T17:39:40.066Z,1.20
2019-05-12T17:42:14.847Z,1.43
2019-05-12T17:44:43.589Z,1.00
2019-05-12T17:47:21.435Z,2.10
2019-05-12T17:49:49.426Z,2.67
2019-05-12T17:52:19.891Z,1.23
2019-05-12T17:54:57.869Z,1.40
2019-05-12T17:57:23.519Z,1.17
2019-05-12T17:59:59.753Z,1.17
2019-05-12T18:02:29.556Z,1.97
2019-05-12T18:05:00.971Z,1.33
2019-05-12T18:07:34.276Z,0.97
2019-05-12T18:10:05.491Z,0.90
2019-05-12T18:12:44.106Z,1.03
2019-05-12T18:15:08.922Z,2.60
2019-05-12T18:17:45.119Z,0.93
2019-05-12T18:20:13.785Z,11.20
2019-05-12T18:22:46.932Z,1.23
2019-05-12T18:25:22.056Z,1.20
2019-05-12T18:27:54.251Z,0.80
2019-05-12T18:30:24.280Z,0.90
2019-05-12T18:33:04.097Z,2.40
2019-05-12T18:35:29.139Z,1.50
2019-05-12T18:37:59.659Z,1.63
2019-05-12T18:40:34.181Z,2.03
2019-05-12T18:43:06.446Z,1.17
2019-05-12T18:45:39.921Z,0.90
2019-05-12T18:48:18.139Z,1.63
2019-05-12T18:50:44.216Z,0.87
2019-05-12T18:53:27.238Z,0.90
2019-05-12T18:55:48.661Z,1.37
2019-05-12T18:58:21.677Z,1.30
2019-05-12T19:00:53.826Z,2.00
2019-05-12T19:03:25.569Z,2.63
2019-05-12T19:05:58.143Z,0.93
2019-05-12T19:08:28.263Z,1.20
2019-05-12T19:10:58.885Z,1.40
2019-05-12T19:13:29.629Z,4.20
2019-05-12T19:16:07.054Z,3.03
2019-05-12T19:18:37.073Z,1.47
2019-05-12T19:21:10.171Z,1.43
2019-05-12T19:23:37.765Z,1.30
2019-05-12T19:26:08.512Z,1.23
2019-05-12T19:28:44.403Z,5.93
2019-05-12T19:31:14.206Z,1.03
2019-05-12T19:33:56.632Z,0.93
2019-05-12T19:36:17.132Z,3.53
2019-05-12T19:38:48.019Z,2.80
2019-05-12T19:41:19.181Z,1.43
2019-05-12T19:43:49.740Z,1.03
2019-05-12T19:46:20.168Z,1.13
2019-05-12T19:48:50.652Z,1.77
2019-05-12T19:51:27.082Z,0.90
2019-05-12T19:53:53.557Z,0.90
2019-05-12T19:56:24.201Z,1.43
2019-05-12T19:58:54.703Z,2.00
2019-05-12T20:01:32.350Z,1.53
2019-05-12T20:03:58.060Z,3.67
2019-05-12T20:06:28.743Z,1.10
2019-05-12T20:09:06.023Z,2.67
2019-05-12T20:11:31.683Z,1.00
2019-05-12T20:14:04.201Z,0.80
2019-05-12T20:16:34.815Z,1.00
2019-05-12T20:19:05.265Z,1.27
2019-05-12T20:21:35.923Z,0.90
2019-05-12T20:24:07.441Z,2.57
2019-05-12T20:26:38.693Z,4.60
2019-05-12T20:29:10.289Z,2.50
2019-05-12T20:31:48.080Z,10.13
2019-05-12T20:34:15.749Z,1.00
2019-05-12T20:36:47.099Z,2.43
2019-05-12T20:39:21.650Z,1.43
2019-05-12T20:41:54.701Z,1.23
2019-05-12T20:44:23.780Z,2.83
2019-05-12T20:46:55.969Z,1.10
2019-05-12T20:49:26.587Z,1.00
2019-05-12T20:52:03.612Z,1.17
2019-05-12T20:54:29.441Z,1.20
2019-05-12T20:57:07.858Z,0.90
2019-05-12T20:59:33.837Z,1.00
2019-05-12T21:02:04.296Z,0.90
2019-05-12T21:04:37.839Z,7.63
2019-05-12T21:07:07.074Z,1.10
2019-05-12T21:09:38.095Z,1.30
2019-05-12T21:12:08.513Z,1.30
2019-05-12T21:14:44.527Z,1.07
2019-05-12T21:17:15.810Z,0.90
2019-05-12T21:19:55.779Z,0.90
2019-05-12T21:22:15.873Z,1.13
2019-05-12T21:24:46.389Z,5.40
2019-05-12T21:27:19.904Z,4.57
2019-05-12T21:29:49.034Z,1.43
2019-05-12T21:32:19.506Z,0.90
2019-05-12T21:34:52.318Z,4.63
2019-05-12T21:37:22.148Z,1.03
2019-05-12T21:39:52.598Z,1.00
2019-05-12T21:42:25.160Z,4.03
2019-05-12T21:44:55.473Z,1.03
2019-05-12T21:47:25.987Z,1.20
2019-05-12T21:49:58.036Z,1.17
2019-05-12T21:52:37.187Z,6.87
2019-05-12T21:55:00.759Z,1.10
2019-05-12T21:57:31.309Z,3.83
2019-05-12T22:00:04.613Z,7.03
2019-05-12T22:02:34.167Z,0.80
2019-05-12T22:05:04.927Z,1.60
2019-05-12T22:07:39.697Z,1.00
2019-05-12T22:10:07.887Z,4.67
2019-05-12T22:12:38.458Z,2.00
2019-05-12T22:15:19.226Z,1.10
2019-05-12T22:18:04.226Z,2.83
2019-05-12T22:20:34.902Z,1.73
2019-05-12T22:23:11.574Z,2.13
2019-05-12T22:25:38.385Z,1.10
2019-05-12T22:28:10.437Z,1.10
2019-05-12T22:30:43.585Z,1.30
2019-05-12T22:33:13.938Z,1.63
2019-05-12T22:35:45.023Z,3.93
2019-05-12T22:38:20.712Z,1.00
2019-05-12T22:40:49.164Z,3.03
2019-05-12T22:43:19.899Z,2.97
2019-05-12T22:45:50.843Z,1.47
2019-05-12T22:48:21.303Z,1.00
2019-05-12T22:50:51.836Z,1.23
2019-05-12T22:53:25.770Z,1.17
2019-05-12T22:55:54.481Z,1.57
2019-05-12T22:58:25.596Z,3.13
2019-05-12T23:01:00.645Z,3.23
2019-05-12T23:03:28.344Z,1.73
2019-05-12T23:06:01.519Z,1.03
2019-05-12T23:08:30.901Z,1.20
2019-05-12T23:11:03.667Z,2.67
2019-05-12T23:13:40.922Z,1.37
2019-05-12T23:16:05.845Z,1.23
2019-05-12T23:18:36.287Z,3.80
2019-05-12T23:21:13.276Z,1.30
2019-05-12T23:23:38.925Z,1.10
2019-05-12T23:26:09.319Z,2.53
2019-05-12T23:28:40.387Z,0.97
2019-05-12T23:31:13.433Z,3.43
2019-05-12T23:33:44.184Z,1.50
2019-05-12T23:36:17.812Z,1.23
2019-05-12T23:38:51.970Z,1.53
2019-05-12T23:41:18.875Z,4.10
2019-05-12T23:43:49.388Z,2.93
2019-05-12T23:46:19.789Z,1.40
2019-05-12T23:48:50.234Z,1.30
2019-05-12T23:51:20.644Z,2.00
2019-05-12T23:53:51.060Z,1.27
2019-05-12T23:56:21.481Z,1.27
2019-05-12T23:58:53.851Z,1.33
